Airport ID:CYTF
Update Time (UTC):06/05/2021 08:39
Wind Speed (Knots):12
Wind Direction (Magnetic):330
Temperature (°C):5.2
Dew Point (°C):4.4
Humidity (%):94
Altimeter (inHg):29.72
Density Altitude (Feet):\\\\
Visibility (Miles):6
Clouds (Hundreds of feet):BKN006 BKN009 OVC014
Present Weather:-RA
METAR:METAR CYTF 060830Z AUTO 31014G24KT 5SM -RA BKN006 OVC010 05/04 A2971

The data displayed is for advisory purposes only and is not to be used for flight planning or operations.

This page is not automatically refreshed. Reload the page to see current data.